Padre Island Natl Seashore, Texas
Current Conditions -  °F | °C
As of 5:35 AM on Tuesday 21 Oct 2014 (Local Time) from KOPM Reporting Station
Overcast Overcast  
Wind Chill: 77°   Ceiling: 3000
Heat Index: 78°   Visibility: 9mi
Dew Point: 72°   Wind: 25mph
Humidity: 83%   Direction: 40°NE
Pressure: 29.91"   Gusts: NA
Location:  26.79°N, 97.37°W
Report Text: KOPM 211035Z AUTO 04022KT 9SM SCT003 BKN030 OVC055 25/22 A2991 RMK A01
Loading
Personal Weather Stations






























Interactive Weather Map
Tropical Storm Tracking
New forecast layout! Learn more

10-Day Weather Forecast

Advertisements
Track Severe Weather on mobile